createdAt,value
2023-05-09T00:00:02.287Z,21.90
2023-05-09T00:05:00.544Z,21.50
2023-05-09T00:10:00.915Z,24.40
2023-05-09T00:15:00.602Z,24.10
2023-05-09T00:20:01.142Z,23.20
2023-05-09T00:25:00.574Z,23.90
2023-05-09T00:30:00.627Z,24.50
2023-05-09T00:35:00.559Z,23.20
2023-05-09T00:40:00.591Z,25.60
2023-05-09T00:45:01.344Z,24.20
2023-05-09T00:50:01.292Z,26.10
2023-05-09T00:55:01.058Z,25.30
2023-05-09T01:00:01.313Z,24.90
2023-05-09T01:05:00.685Z,25.60
2023-05-09T01:10:08.191Z,22.30
2023-05-09T01:15:07.399Z,24.00
2023-05-09T01:20:11.408Z,22.80
2023-05-09T01:25:15.439Z,22.70
2023-05-09T01:30:03.541Z,20.30
2023-05-09T01:35:02.721Z,20.70
2023-05-09T01:40:14.267Z,21.90
2023-05-09T01:45:02.534Z,21.30
2023-05-09T01:50:03.062Z,19.90
2023-05-09T01:55:01.295Z,18.90
2023-05-09T02:00:03.735Z,19.30
2023-05-09T02:05:01.420Z,19.50
2023-05-09T02:10:02.153Z,20.00
2023-05-09T02:15:00.669Z,18.70
2023-05-09T02:20:00.556Z,17.80
2023-05-09T02:25:02.235Z,17.00
2023-05-09T02:30:05.374Z,15.40
2023-05-09T02:35:02.135Z,14.30
2023-05-09T02:40:00.559Z,14.90
2023-05-09T02:45:00.569Z,13.60
2023-05-09T02:50:00.552Z,14.00
2023-05-09T02:55:01.041Z,14.10
2023-05-09T03:00:02.065Z,14.10
2023-05-09T03:05:00.935Z,13.90
2023-05-09T03:10:00.561Z,14.70
2023-05-09T03:15:00.571Z,13.40
2023-05-09T03:20:03.907Z,14.40
2023-05-09T03:25:00.642Z,14.40
2023-05-09T03:30:00.594Z,14.20
2023-05-09T03:35:00.634Z,12.80
2023-05-09T03:40:00.687Z,13.20
2023-05-09T03:45:00.552Z,13.50
2023-05-09T03:50:00.575Z,13.70
2023-05-09T03:55:00.557Z,14.20
2023-05-09T04:00:01.621Z,14.80
2023-05-09T04:05:00.932Z,14.80
2023-05-09T04:10:00.621Z,13.40
2023-05-09T04:15:00.574Z,14.50
2023-05-09T04:20:00.977Z,13.50
2023-05-09T04:25:00.652Z,13.90
2023-05-09T04:30:00.538Z,13.10
2023-05-09T04:35:00.526Z,13.90
2023-05-09T04:40:00.589Z,13.50
2023-05-09T04:45:00.853Z,13.40
2023-05-09T04:50:00.575Z,12.70
2023-05-09T04:55:00.594Z,12.10
2023-05-09T05:00:01.876Z,13.00
2023-05-09T05:05:10.859Z,12.40
2023-05-09T05:10:00.559Z,13.50
2023-05-09T05:15:00.570Z,13.20
2023-05-09T05:20:00.608Z,14.40
2023-05-09T05:25:00.560Z,14.40
2023-05-09T05:30:00.525Z,14.60
2023-05-09T05:35:00.628Z,14.40
2023-05-09T05:40:00.570Z,14.60
2023-05-09T05:45:00.652Z,13.60
2023-05-09T05:50:01.785Z,13.10
2023-05-09T05:55:00.538Z,13.80
2023-05-09T06:00:01.061Z,13.40
2023-05-09T06:05:00.691Z,12.70
2023-05-09T06:10:00.560Z,12.00
2023-05-09T06:15:00.667Z,11.80
2023-05-09T06:20:00.557Z,12.00
2023-05-09T06:25:00.575Z,12.20
2023-05-09T06:30:04.190Z,11.40
2023-05-09T06:35:00.577Z,13.00
2023-05-09T06:40:00.553Z,11.50
2023-05-09T06:45:00.640Z,11.30
2023-05-09T06:50:00.606Z,10.80
2023-05-09T06:55:00.582Z,11.70
2023-05-09T07:00:01.171Z,11.30
2023-05-09T07:05:00.750Z,10.80
2023-05-09T07:10:10.447Z,11.30
2023-05-09T07:15:00.567Z,11.40
2023-05-09T07:20:00.562Z,12.10
2023-05-09T07:25:00.580Z,11.40
2023-05-09T07:30:00.734Z,12.00
2023-05-09T07:35:00.911Z,13.00
2023-05-09T07:40:00.793Z,12.10
2023-05-09T07:45:00.626Z,11.60
2023-05-09T07:50:00.571Z,11.50
2023-05-09T07:55:00.581Z,11.40
2023-05-09T08:00:01.141Z,11.40
2023-05-09T08:05:00.878Z,10.50
2023-05-09T08:10:00.554Z,9.90
2023-05-09T08:15:00.579Z,8.70
2023-05-09T08:20:00.590Z,8.80
2023-05-09T08:25:00.680Z,9.10
2023-05-09T08:30:00.616Z,12.20
2023-05-09T08:35:00.578Z,9.80
2023-05-09T08:40:00.846Z,9.10
2023-05-09T08:45:06.051Z,7.90
2023-05-09T08:50:02.126Z,7.00
2023-05-09T08:55:02.146Z,8.50
2023-05-09T09:00:03.086Z,9.30
2023-05-09T09:05:00.666Z,6.80
2023-05-09T09:10:02.256Z,6.60
2023-05-09T09:15:04.059Z,7.50
2023-05-09T09:20:04.171Z,7.00
2023-05-09T09:25:00.576Z,8.50
2023-05-09T09:30:09.340Z,9.50
2023-05-09T09:35:05.135Z,8.60
2023-05-09T09:40:01.477Z,9.40
2023-05-09T09:45:01.560Z,7.20
2023-05-09T09:50:11.612Z,7.20
2023-05-09T09:55:00.681Z,7.20
2023-05-09T10:00:01.071Z,7.30
2023-05-09T10:05:08.027Z,6.80
2023-05-09T10:10:01.543Z,6.60
2023-05-09T10:15:03.235Z,6.80
2023-05-09T10:20:03.854Z,6.10
2023-05-09T10:25:03.938Z,6.50
2023-05-09T10:30:12.552Z,6.60
2023-05-09T10:35:04.297Z,6.40
2023-05-09T10:40:02.978Z,6.40
2023-05-09T10:45:00.866Z,6.50
2023-05-09T10:50:00.936Z,7.10
2023-05-09T10:55:03.279Z,6.00
2023-05-09T11:00:01.982Z,6.80
2023-05-09T11:05:12.342Z,6.90
2023-05-09T11:10:14.204Z,6.50
2023-05-09T11:15:08.256Z,6.50
2023-05-09T11:20:04.424Z,6.40
2023-05-09T11:25:05.085Z,5.90
2023-05-09T11:30:04.777Z,6.20
2023-05-09T11:35:05.298Z,6.80
2023-05-09T11:40:01.858Z,6.50
2023-05-09T11:45:02.904Z,6.00
2023-05-09T11:50:00.588Z,6.00
2023-05-09T11:55:00.636Z,6.80
2023-05-09T12:00:02.382Z,6.30
2023-05-09T12:05:12.481Z,7.00
2023-05-09T12:10:00.630Z,6.50
2023-05-09T12:15:08.308Z,6.00
2023-05-09T12:20:00.958Z,6.90
2023-05-09T12:25:04.932Z,6.60
2023-05-09T12:30:00.752Z,6.00
2023-05-09T12:35:00.567Z,5.30
2023-05-09T12:40:01.485Z,5.40
2023-05-09T12:45:01.922Z,5.30
2023-05-09T12:50:02.487Z,5.90
2023-05-09T12:55:10.172Z,5.50
2023-05-09T13:00:03.072Z,4.70
2023-05-09T13:05:12.723Z,5.00
2023-05-09T13:10:00.537Z,4.60
2023-05-09T13:15:00.819Z,4.80
2023-05-09T13:20:00.626Z,4.50
2023-05-09T13:25:00.599Z,5.70
2023-05-09T13:30:00.771Z,5.50
2023-05-09T13:35:00.767Z,5.20
2023-05-09T13:40:01.215Z,5.90
2023-05-09T13:45:00.696Z,5.00
2023-05-09T13:50:00.531Z,6.70
2023-05-09T13:55:00.586Z,5.70
2023-05-09T14:00:02.551Z,4.10
2023-05-09T14:05:00.590Z,6.10
2023-05-09T14:10:11.474Z,4.40
2023-05-09T14:20:00.582Z,4.30
2023-05-09T14:25:00.590Z,7.10
2023-05-09T14:30:00.576Z,6.00
2023-05-09T14:35:00.685Z,5.80
2023-05-09T14:40:00.596Z,5.10
2023-05-09T14:45:00.545Z,6.00
2023-05-09T14:50:00.593Z,3.80
2023-05-09T14:55:00.584Z,4.10
2023-05-09T15:00:16.921Z,4.20
2023-05-09T15:05:00.963Z,4.70
2023-05-09T15:10:01.036Z,4.00
2023-05-09T15:15:11.584Z,4.00
2023-05-09T15:20:00.600Z,5.00
2023-05-09T15:25:00.667Z,4.60
2023-05-09T15:30:00.861Z,3.90
2023-05-09T15:35:00.583Z,3.40
2023-05-09T15:40:00.898Z,3.60
2023-05-09T15:45:00.673Z,3.90
2023-05-09T15:50:00.615Z,4.20
2023-05-09T15:55:00.630Z,4.10
2023-05-09T16:00:02.214Z,4.90
2023-05-09T16:05:00.546Z,3.30
2023-05-09T16:10:00.589Z,4.40
2023-05-09T16:15:00.667Z,7.60
2023-05-09T16:20:00.716Z,7.60
2023-05-09T16:25:00.547Z,5.90
2023-05-09T16:30:00.851Z,5.30
2023-05-09T16:35:00.566Z,3.60
2023-05-09T16:40:00.819Z,3.60
2023-05-09T16:45:00.564Z,3.90
2023-05-09T16:50:00.716Z,3.90
2023-05-09T16:55:00.581Z,3.70
2023-05-09T17:00:01.971Z,4.20
2023-05-09T17:05:02.431Z,4.40
2023-05-09T17:10:00.566Z,3.80
2023-05-09T17:15:00.572Z,4.00
2023-05-09T17:20:01.038Z,4.30
2023-05-09T17:25:00.566Z,4.60
2023-05-09T17:30:01.026Z,5.00
2023-05-09T17:35:00.593Z,4.20
2023-05-09T17:40:00.888Z,4.40
2023-05-09T17:45:00.603Z,4.20
2023-05-09T17:50:00.558Z,4.50
2023-05-09T17:55:00.564Z,4.80
2023-05-09T18:00:01.153Z,4.60
2023-05-09T18:05:00.748Z,4.60
2023-05-09T18:10:00.854Z,5.20
2023-05-09T18:15:01.372Z,5.00
2023-05-09T18:20:00.713Z,5.10
2023-05-09T18:25:00.540Z,4.60
2023-05-09T18:30:00.662Z,4.40
2023-05-09T18:35:00.585Z,4.70
2023-05-09T18:40:00.594Z,5.00
2023-05-09T18:45:00.608Z,4.70
2023-05-09T18:50:02.721Z,5.10
2023-05-09T18:55:00.583Z,5.30
2023-05-09T19:00:01.350Z,5.20
2023-05-09T19:05:00.627Z,6.00
2023-05-09T19:10:00.791Z,5.50
2023-05-09T19:15:01.263Z,5.90
2023-05-09T19:20:00.583Z,6.40
2023-05-09T19:25:00.625Z,6.30
2023-05-09T19:30:00.589Z,7.20
2023-05-09T19:35:00.594Z,7.20
2023-05-09T19:40:00.712Z,7.50
2023-05-09T19:45:00.574Z,8.30
2023-05-09T19:50:00.576Z,8.40
2023-05-09T19:55:00.552Z,8.80
2023-05-09T20:00:01.055Z,8.80
2023-05-09T20:05:00.574Z,7.90
2023-05-09T20:10:00.521Z,8.80
2023-05-09T20:15:00.566Z,8.30
2023-05-09T20:20:00.540Z,7.20
2023-05-09T20:25:00.548Z,7.60
2023-05-09T20:30:01.481Z,8.60
2023-05-09T20:35:00.663Z,8.10
2023-05-09T20:40:01.607Z,8.00
2023-05-09T20:45:01.000Z,8.40
2023-05-09T20:50:00.661Z,8.40
2023-05-09T20:55:00.568Z,9.00
2023-05-09T21:00:01.218Z,10.20
2023-05-09T21:05:00.547Z,10.70
2023-05-09T21:10:00.551Z,11.90
2023-05-09T21:15:00.551Z,11.20
2023-05-09T21:20:00.532Z,13.20
2023-05-09T21:25:00.574Z,13.00
2023-05-09T21:30:00.682Z,14.40
2023-05-09T21:35:01.077Z,16.00
2023-05-09T21:40:00.341Z,16.40
2023-05-09T21:45:00.534Z,16.30
2023-05-09T21:50:00.338Z,16.50
2023-05-09T21:55:00.321Z,18.70
2023-05-09T22:00:00.363Z,18.70
2023-05-09T22:05:00.349Z,18.10
2023-05-09T22:10:00.486Z,17.70
2023-05-09T22:15:00.495Z,18.70
2023-05-09T22:20:00.364Z,17.20
2023-05-09T22:25:00.376Z,18.10
2023-05-09T22:30:00.354Z,17.80
2023-05-09T22:35:00.407Z,18.80
2023-05-09T22:40:00.314Z,19.10
2023-05-09T22:45:00.924Z,17.90
2023-05-09T22:50:00.326Z,18.50
2023-05-09T22:55:00.334Z,19.90
2023-05-09T23:00:00.393Z,17.50
2023-05-09T23:05:00.339Z,17.80
2023-05-09T23:10:00.335Z,17.60
2023-05-09T23:15:00.338Z,17.20
2023-05-09T23:20:00.468Z,17.80
2023-05-09T23:25:00.353Z,18.70
2023-05-09T23:30:00.320Z,17.20
2023-05-09T23:35:00.385Z,15.50
2023-05-09T23:40:00.379Z,17.40
2023-05-09T23:45:00.336Z,16.00
2023-05-09T23:50:00.433Z,14.90
2023-05-09T23:55:00.371Z,16.50
